sensor_id;sensor_type;location;lat;lon;timestamp;P1;durP1;ratioP1;P2;durP2;ratioP2
47025;SDS011;32783;51.756;-2.556;2023-04-01T00:00:05;1.10;;;0.65;;
47025;SDS011;32783;51.756;-2.556;2023-04-01T00:02:37;0.75;;;0.50;;
47025;SDS011;32783;51.756;-2.556;2023-04-01T00:05:03;0.70;;;0.60;;
47025;SDS011;32783;51.756;-2.556;2023-04-01T00:07:36;1.35;;;0.93;;
47025;SDS011;32783;51.756;-2.556;2023-04-01T00:10:09;0.93;;;0.40;;
47025;SDS011;32783;51.756;-2.556;2023-04-01T00:12:43;1.15;;;0.40;;
47025;SDS011;32783;51.756;-2.556;2023-04-01T00:15:09;0.70;;;0.50;;
47025;SDS011;32783;51.756;-2.556;2023-04-01T00:17:42;0.80;;;0.40;;
47025;SDS011;32783;51.756;-2.556;2023-04-01T00:20:14;1.05;;;0.47;;
47025;SDS011;32783;51.756;-2.556;2023-04-01T00:22:46;0.93;;;0.50;;
47025;SDS011;32783;51.756;-2.556;2023-04-01T00:25:12;0.75;;;0.70;;
47025;SDS011;32783;51.756;-2.556;2023-04-01T00:27:45;0.40;;;0.40;;
47025;SDS011;32783;51.756;-2.556;2023-04-01T00:30:17;1.23;;;0.85;;
47025;SDS011;32783;51.756;-2.556;2023-04-01T00:32:42;0.60;;;0.50;;
47025;SDS011;32783;51.756;-2.556;2023-04-01T00:35:15;0.93;;;0.55;;
47025;SDS011;32783;51.756;-2.556;2023-04-01T00:37:46;0.60;;;0.50;;
47025;SDS011;32783;51.756;-2.556;2023-04-01T00:40:26;0.40;;;0.40;;
47025;SDS011;32783;51.756;-2.556;2023-04-01T00:43:09;0.47;;;0.30;;
47025;SDS011;32783;51.756;-2.556;2023-04-01T00:45:38;0.60;;;0.38;;
47025;SDS011;32783;51.756;-2.556;2023-04-01T00:48:21;0.57;;;0.50;;
47025;SDS011;32783;51.756;-2.556;2023-04-01T00:51:00;0.55;;;0.30;;
47025;SDS011;32783;51.756;-2.556;2023-04-01T00:53:43;0.40;;;0.40;;
47025;SDS011;32783;51.756;-2.556;2023-04-01T00:56:17;0.65;;;0.50;;
47025;SDS011;32783;51.756;-2.556;2023-04-01T00:58:58;0.30;;;0.25;;
47025;SDS011;32783;51.756;-2.556;2023-04-01T01:01:25;1.35;;;0.60;;
47025;SDS011;32783;51.756;-2.556;2023-04-01T01:04:05;0.57;;;0.50;;
47025;SDS011;32783;51.756;-2.556;2023-04-01T01:12:25;0.68;;;0.40;;
47025;SDS011;32783;51.756;-2.556;2023-04-01T01:15:26;0.82;;;0.50;;
47025;SDS011;32783;51.756;-2.556;2023-04-01T01:27:09;0.40;;;0.40;;
47025;SDS011;32783;51.756;-2.556;2023-04-01T01:37:44;0.77;;;0.50;;
47025;SDS011;32783;51.756;-2.556;2023-04-01T01:40:11;0.55;;;0.40;;
47025;SDS011;32783;51.756;-2.556;2023-04-01T01:42:54;0.30;;;0.20;;
47025;SDS011;32783;51.756;-2.556;2023-04-01T01:45:21;0.55;;;0.43;;
47025;SDS011;32783;51.756;-2.556;2023-04-01T01:48:02;0.52;;;0.40;;
47025;SDS011;32783;51.756;-2.556;2023-04-01T01:50:30;0.30;;;0.30;;
47025;SDS011;32783;51.756;-2.556;2023-04-01T01:53:05;0.40;;;0.28;;
47025;SDS011;32783;51.756;-2.556;2023-04-01T01:55:44;0.30;;;0.20;;
47025;SDS011;32783;51.756;-2.556;2023-04-01T02:03:55;1.85;;;0.57;;
47025;SDS011;32783;51.756;-2.556;2023-04-01T02:06:28;0.20;;;0.20;;
47025;SDS011;32783;51.756;-2.556;2023-04-01T02:09:03;0.50;;;0.50;;
47025;SDS011;32783;51.756;-2.556;2023-04-01T02:11:37;0.35;;;0.30;;
47025;SDS011;32783;51.756;-2.556;2023-04-01T02:14:13;0.32;;;0.30;;
47025;SDS011;32783;51.756;-2.556;2023-04-01T02:19:27;0.28;;;0.28;;
47025;SDS011;32783;51.756;-2.556;2023-04-01T02:22:03;0.35;;;0.32;;
47025;SDS011;32783;51.756;-2.556;2023-04-01T02:24:36;0.47;;;0.20;;
47025;SDS011;32783;51.756;-2.556;2023-04-01T02:27:09;0.40;;;0.28;;
47025;SDS011;32783;51.756;-2.556;2023-04-01T02:29:35;0.30;;;0.30;;
47025;SDS011;32783;51.756;-2.556;2023-04-01T02:32:07;0.82;;;0.40;;
47025;SDS011;32783;51.756;-2.556;2023-04-01T02:34:39;0.25;;;0.20;;
47025;SDS011;32783;51.756;-2.556;2023-04-01T02:37:05;0.20;;;0.20;;
47025;SDS011;32783;51.756;-2.556;2023-04-01T02:39:38;0.30;;;0.30;;
47025;SDS011;32783;51.756;-2.556;2023-04-01T02:42:09;0.20;;;0.20;;
47025;SDS011;32783;51.756;-2.556;2023-04-01T02:44:35;0.30;;;0.22;;
47025;SDS011;32783;51.756;-2.556;2023-04-01T02:47:07;0.45;;;0.30;;
47025;SDS011;32783;51.756;-2.556;2023-04-01T02:49:39;0.10;;;0.10;;
47025;SDS011;32783;51.756;-2.556;2023-04-01T02:52:06;0.10;;;0.10;;
47025;SDS011;32783;51.756;-2.556;2023-04-01T02:54:39;0.65;;;0.20;;
47025;SDS011;32783;51.756;-2.556;2023-04-01T02:57:10;0.55;;;0.30;;
47025;SDS011;32783;51.756;-2.556;2023-04-01T02:59:36;0.40;;;0.30;;
47025;SDS011;32783;51.756;-2.556;2023-04-01T03:02:08;0.57;;;0.32;;
47025;SDS011;32783;51.756;-2.556;2023-04-01T03:04:39;0.30;;;0.30;;
47025;SDS011;32783;51.756;-2.556;2023-04-01T03:07:05;0.35;;;0.20;;
47025;SDS011;32783;51.756;-2.556;2023-04-01T03:09:37;0.28;;;0.20;;
47025;SDS011;32783;51.756;-2.556;2023-04-01T03:12:09;0.30;;;0.30;;
47025;SDS011;32783;51.756;-2.556;2023-04-01T03:14:35;0.20;;;0.20;;
47025;SDS011;32783;51.756;-2.556;2023-04-01T03:17:07;0.45;;;0.30;;
47025;SDS011;32783;51.756;-2.556;2023-04-01T03:19:38;0.20;;;0.20;;
47025;SDS011;32783;51.756;-2.556;2023-04-01T03:22:04;0.47;;;0.30;;
47025;SDS011;32783;51.756;-2.556;2023-04-01T03:24:36;0.75;;;0.20;;
47025;SDS011;32783;51.756;-2.556;2023-04-01T03:27:07;0.43;;;0.20;;
47025;SDS011;32783;51.756;-2.556;2023-04-01T03:29:33;0.10;;;0.10;;
47025;SDS011;32783;51.756;-2.556;2023-04-01T03:32:05;0.45;;;0.30;;
47025;SDS011;32783;51.756;-2.556;2023-04-01T03:34:36;0.30;;;0.30;;
47025;SDS011;32783;51.756;-2.556;2023-04-01T03:37:02;0.30;;;0.25;;
47025;SDS011;32783;51.756;-2.556;2023-04-01T03:39:34;0.30;;;0.20;;
47025;SDS011;32783;51.756;-2.556;2023-04-01T03:42:06;0.40;;;0.20;;
47025;SDS011;32783;51.756;-2.556;2023-04-01T03:44:35;0.10;;;0.10;;
47025;SDS011;32783;51.756;-2.556;2023-04-01T03:47:13;0.15;;;0.15;;
47025;SDS011;32783;51.756;-2.556;2023-04-01T03:49:39;0.20;;;0.10;;
47025;SDS011;32783;51.756;-2.556;2023-04-01T03:52:07;0.10;;;0.10;;
47025;SDS011;32783;51.756;-2.556;2023-04-01T03:54:47;0.20;;;0.20;;
47025;SDS011;32783;51.756;-2.556;2023-04-01T03:57:13;0.40;;;0.20;;
47025;SDS011;32783;51.756;-2.556;2023-04-01T03:59:38;0.22;;;0.20;;
47025;SDS011;32783;51.756;-2.556;2023-04-01T04:02:18;0.40;;;0.10;;
47025;SDS011;32783;51.756;-2.556;2023-04-01T04:04:43;0.30;;;0.20;;
47025;SDS011;32783;51.756;-2.556;2023-04-01T04:07:08;1.00;;;0.20;;
47025;SDS011;32783;51.756;-2.556;2023-04-01T04:09:47;0.15;;;0.10;;
47025;SDS011;32783;51.756;-2.556;2023-04-01T04:12:21;0.10;;;0.10;;
47025;SDS011;32783;51.756;-2.556;2023-04-01T04:14:59;0.30;;;0.17;;
47025;SDS011;32783;51.756;-2.556;2023-04-01T04:17:25;0.20;;;0.10;;
47025;SDS011;32783;51.756;-2.556;2023-04-01T04:19:51;0.50;;;0.30;;
47025;SDS011;32783;51.756;-2.556;2023-04-01T04:22:29;0.30;;;0.20;;
47025;SDS011;32783;51.756;-2.556;2023-04-01T04:24:55;0.13;;;0.10;;
47025;SDS011;32783;51.756;-2.556;2023-04-01T04:27:20;0.25;;;0.10;;
47025;SDS011;32783;51.756;-2.556;2023-04-01T04:29:59;0.20;;;0.20;;
47025;SDS011;32783;51.756;-2.556;2023-04-01T04:32:25;0.30;;;0.10;;
47025;SDS011;32783;51.756;-2.556;2023-04-01T04:34:50;0.57;;;0.52;;
47025;SDS011;32783;51.756;-2.556;2023-04-01T04:37:28;0.20;;;0.15;;
47025;SDS011;32783;51.756;-2.556;2023-04-01T04:39:54;0.20;;;0.20;;
47025;SDS011;32783;51.756;-2.556;2023-04-01T04:42:19;0.20;;;0.10;;
47025;SDS011;32783;51.756;-2.556;2023-04-01T04:44:58;0.10;;;0.10;;
47025;SDS011;32783;51.756;-2.556;2023-04-01T04:47:24;0.05;;;0.05;;
47025;SDS011;32783;51.756;-2.556;2023-04-01T04:49:49;0.60;;;0.20;;
47025;SDS011;32783;51.756;-2.556;2023-04-01T04:52:27;0.10;;;0.10;;
47025;SDS011;32783;51.756;-2.556;2023-04-01T04:54:53;0.40;;;0.20;;
47025;SDS011;32783;51.756;-2.556;2023-04-01T04:57:18;0.03;;;0.03;;
47025;SDS011;32783;51.756;-2.556;2023-04-01T04:59:57;0.10;;;0.10;;
47025;SDS011;32783;51.756;-2.556;2023-04-01T05:02:23;0.10;;;0.10;;
47025;SDS011;32783;51.756;-2.556;2023-04-01T05:04:48;0.50;;;0.20;;
47025;SDS011;32783;51.756;-2.556;2023-04-01T05:07:27;0.10;;;0.10;;
47025;SDS011;32783;51.756;-2.556;2023-04-01T05:09:53;0.73;;;0.35;;
47025;SDS011;32783;51.756;-2.556;2023-04-01T05:12:18;0.20;;;0.20;;
47025;SDS011;32783;51.756;-2.556;2023-04-01T05:14:56;0.38;;;0.10;;
47025;SDS011;32783;51.756;-2.556;2023-04-01T05:17:22;0.40;;;0.15;;
47025;SDS011;32783;51.756;-2.556;2023-04-01T05:19:47;0.45;;;0.13;;
47025;SDS011;32783;51.756;-2.556;2023-04-01T05:22:25;0.10;;;0.10;;
47025;SDS011;32783;51.756;-2.556;2023-04-01T05:24:51;0.10;;;0.10;;
47025;SDS011;32783;51.756;-2.556;2023-04-01T05:27:16;0.15;;;0.10;;
47025;SDS011;32783;51.756;-2.556;2023-04-01T05:29:55;0.10;;;0.10;;
47025;SDS011;32783;51.756;-2.556;2023-04-01T05:32:21;0.15;;;0.10;;
47025;SDS011;32783;51.756;-2.556;2023-04-01T05:34:46;0.32;;;0.13;;
47025;SDS011;32783;51.756;-2.556;2023-04-01T05:37:28;0.10;;;0.10;;
47025;SDS011;32783;51.756;-2.556;2023-04-01T05:39:54;0.25;;;0.17;;
47025;SDS011;32783;51.756;-2.556;2023-04-01T05:42:19;0.38;;;0.10;;
47025;SDS011;32783;51.756;-2.556;2023-04-01T05:44:58;0.10;;;0.10;;
47025;SDS011;32783;51.756;-2.556;2023-04-01T05:47:24;0.20;;;0.20;;
47025;SDS011;32783;51.756;-2.556;2023-04-01T05:49:49;0.30;;;0.15;;
47025;SDS011;32783;51.756;-2.556;2023-04-01T05:52:27;0.10;;;0.10;;
47025;SDS011;32783;51.756;-2.556;2023-04-01T05:54:53;0.00;;;0.00;;
47025;SDS011;32783;51.756;-2.556;2023-04-01T05:57:18;0.52;;;0.10;;
47025;SDS011;32783;51.756;-2.556;2023-04-01T05:59:57;0.10;;;0.10;;
47025;SDS011;32783;51.756;-2.556;2023-04-01T06:02:23;0.30;;;0.10;;
47025;SDS011;32783;51.756;-2.556;2023-04-01T06:04:48;0.10;;;0.10;;
47025;SDS011;32783;51.756;-2.556;2023-04-01T06:07:27;0.20;;;0.10;;
47025;SDS011;32783;51.756;-2.556;2023-04-01T06:09:53;0.30;;;0.10;;
47025;SDS011;32783;51.756;-2.556;2023-04-01T06:18:38;0.32;;;0.10;;
47025;SDS011;32783;51.756;-2.556;2023-04-01T06:27:14;0.10;;;0.10;;
47025;SDS011;32783;51.756;-2.556;2023-04-01T06:32:30;0.25;;;0.20;;
47025;SDS011;32783;51.756;-2.556;2023-04-01T06:35:20;0.15;;;0.10;;
47025;SDS011;32783;51.756;-2.556;2023-04-01T06:40:45;0.13;;;0.10;;
47025;SDS011;32783;51.756;-2.556;2023-04-01T06:48:40;0.20;;;0.20;;
47025;SDS011;32783;51.756;-2.556;2023-04-01T06:52:02;0.35;;;0.20;;
47025;SDS011;32783;51.756;-2.556;2023-04-01T06:54:31;0.20;;;0.20;;
47025;SDS011;32783;51.756;-2.556;2023-04-01T07:00:11;1.25;;;0.10;;
47025;SDS011;32783;51.756;-2.556;2023-04-01T07:02:48;0.13;;;0.10;;
47025;SDS011;32783;51.756;-2.556;2023-04-01T07:05:23;0.88;;;0.40;;
47025;SDS011;32783;51.756;-2.556;2023-04-01T07:07:57;2.40;;;0.20;;
47025;SDS011;32783;51.756;-2.556;2023-04-01T07:13:17;2.83;;;0.35;;
47025;SDS011;32783;51.756;-2.556;2023-04-01T07:16:07;1.42;;;0.17;;
47025;SDS011;32783;51.756;-2.556;2023-04-01T07:21:21;0.20;;;0.10;;
47025;SDS011;32783;51.756;-2.556;2023-04-01T07:24:00;0.08;;;0.08;;
47025;SDS011;32783;51.756;-2.556;2023-04-01T07:26:35;0.60;;;0.10;;
47025;SDS011;32783;51.756;-2.556;2023-04-01T07:29:13;1.45;;;0.10;;
47025;SDS011;32783;51.756;-2.556;2023-04-01T07:31:50;0.43;;;0.13;;
47025;SDS011;32783;51.756;-2.556;2023-04-01T07:34:26;0.30;;;0.22;;
47025;SDS011;32783;51.756;-2.556;2023-04-01T07:37:24;0.45;;;0.10;;
47025;SDS011;32783;51.756;-2.556;2023-04-01T07:51:16;1.85;;;0.30;;
47025;SDS011;32783;51.756;-2.556;2023-04-01T08:08:00;0.60;;;0.20;;
47025;SDS011;32783;51.756;-2.556;2023-04-01T08:10:41;0.25;;;0.20;;
47025;SDS011;32783;51.756;-2.556;2023-04-01T08:21:23;0.38;;;0.10;;
47025;SDS011;32783;51.756;-2.556;2023-04-01T08:24:00;0.45;;;0.20;;
47025;SDS011;32783;51.756;-2.556;2023-04-01T08:26:44;0.70;;;0.20;;
47025;SDS011;32783;51.756;-2.556;2023-04-01T08:29:19;0.65;;;0.10;;
47025;SDS011;32783;51.756;-2.556;2023-04-01T08:34:32;0.32;;;0.30;;
47025;SDS011;32783;51.756;-2.556;2023-04-01T08:37:20;0.35;;;0.10;;
47025;SDS011;32783;51.756;-2.556;2023-04-01T08:43:09;0.40;;;0.10;;
47025;SDS011;32783;51.756;-2.556;2023-04-01T08:56:55;0.43;;;0.32;;
47025;SDS011;32783;51.756;-2.556;2023-04-01T08:59:45;0.73;;;0.30;;
47025;SDS011;32783;51.756;-2.556;2023-04-01T09:11:06;1.33;;;0.20;;
47025;SDS011;32783;51.756;-2.556;2023-04-01T09:23:23;2.40;;;2.20;;
47025;SDS011;32783;51.756;-2.556;2023-04-01T09:34:30;9.73;;;3.10;;
47025;SDS011;32783;51.756;-2.556;2023-04-01T09:46:07;2.60;;;1.50;;
47025;SDS011;32783;51.756;-2.556;2023-04-01T09:51:33;3.17;;;1.67;;
47025;SDS011;32783;51.756;-2.556;2023-04-01T10:08:25;1.85;;;1.38;;
47025;SDS011;32783;51.756;-2.556;2023-04-01T10:11:38;2.25;;;1.17;;
47025;SDS011;32783;51.756;-2.556;2023-04-01T10:20:21;2.35;;;1.02;;
47025;SDS011;32783;51.756;-2.556;2023-04-01T10:28:47;2.67;;;1.30;;
47025;SDS011;32783;51.756;-2.556;2023-04-01T10:42:43;6.88;;;1.60;;
47025;SDS011;32783;51.756;-2.556;2023-04-01T10:56:34;4.93;;;4.13;;
47025;SDS011;32783;51.756;-2.556;2023-04-01T10:59:35;12.70;;;11.30;;
47025;SDS011;32783;51.756;-2.556;2023-04-01T11:28:35;8.40;;;5.18;;
47025;SDS011;32783;51.756;-2.556;2023-04-01T11:31:29;6.10;;;5.45;;
47025;SDS011;32783;51.756;-2.556;2023-04-01T11:42:49;6.32;;;5.05;;
47025;SDS011;32783;51.756;-2.556;2023-04-01T11:45:40;6.28;;;4.93;;
47025;SDS011;32783;51.756;-2.556;2023-04-01T11:48:28;8.23;;;5.10;;
47025;SDS011;32783;51.756;-2.556;2023-04-01T11:51:16;9.27;;;5.05;;
47025;SDS011;32783;51.756;-2.556;2023-04-01T11:53:57;6.32;;;4.55;;
47025;SDS011;32783;51.756;-2.556;2023-04-01T12:02:23;6.07;;;4.03;;
47025;SDS011;32783;51.756;-2.556;2023-04-01T12:08:01;8.30;;;3.22;;
47025;SDS011;32783;51.756;-2.556;2023-04-01T12:10:46;4.10;;;3.30;;
47025;SDS011;32783;51.756;-2.556;2023-04-01T12:19:17;4.15;;;3.15;;
47025;SDS011;32783;51.756;-2.556;2023-04-01T12:21:50;4.10;;;3.33;;
47025;SDS011;32783;51.756;-2.556;2023-04-01T12:35:55;2.95;;;2.00;;
47025;SDS011;32783;51.756;-2.556;2023-04-01T12:52:45;3.92;;;2.60;;
47025;SDS011;32783;51.756;-2.556;2023-04-01T12:55:35;3.05;;;2.13;;
47025;SDS011;32783;51.756;-2.556;2023-04-01T12:58:23;7.57;;;2.42;;
47025;SDS011;32783;51.756;-2.556;2023-04-01T13:07:24;4.07;;;2.00;;
47025;SDS011;32783;51.756;-2.556;2023-04-01T13:09:56;7.13;;;2.38;;
47025;SDS011;32783;51.756;-2.556;2023-04-01T13:15:52;3.20;;;2.17;;
47025;SDS011;32783;51.756;-2.556;2023-04-01T13:18:45;4.95;;;1.98;;
47025;SDS011;32783;51.756;-2.556;2023-04-01T13:21:49;2.63;;;1.85;;
47025;SDS011;32783;51.756;-2.556;2023-04-01T13:35:30;5.72;;;2.25;;
47025;SDS011;32783;51.756;-2.556;2023-04-01T13:43:48;3.72;;;2.10;;
47025;SDS011;32783;51.756;-2.556;2023-04-01T14:01:41;1.92;;;1.20;;
47025;SDS011;32783;51.756;-2.556;2023-04-01T14:04:17;2.70;;;1.73;;
47025;SDS011;32783;51.756;-2.556;2023-04-01T14:12:27;3.20;;;1.67;;
47025;SDS011;32783;51.756;-2.556;2023-04-01T14:30:01;3.45;;;1.10;;
47025;SDS011;32783;51.756;-2.556;2023-04-01T14:35:31;2.50;;;1.35;;
47025;SDS011;32783;51.756;-2.556;2023-04-01T14:41:17;2.30;;;0.95;;
47025;SDS011;32783;51.756;-2.556;2023-04-01T14:49:42;2.50;;;0.80;;
47025;SDS011;32783;51.756;-2.556;2023-04-01T14:52:27;2.53;;;1.00;;
47025;SDS011;32783;51.756;-2.556;2023-04-01T14:54:53;2.50;;;1.00;;
47025;SDS011;32783;51.756;-2.556;2023-04-01T14:57:33;2.58;;;1.15;;
47025;SDS011;32783;51.756;-2.556;2023-04-01T15:00:00;2.10;;;1.10;;
47025;SDS011;32783;51.756;-2.556;2023-04-01T15:08:26;2.72;;;1.10;;
47025;SDS011;32783;51.756;-2.556;2023-04-01T15:14:01;2.42;;;1.00;;
47025;SDS011;32783;51.756;-2.556;2023-04-01T15:16:55;0.93;;;0.60;;
47025;SDS011;32783;51.756;-2.556;2023-04-01T15:32:37;1.23;;;0.80;;
47025;SDS011;32783;51.756;-2.556;2023-04-01T15:34:52;1.25;;;0.70;;
47025;SDS011;32783;51.756;-2.556;2023-04-01T15:37:41;1.20;;;0.73;;
47025;SDS011;32783;51.756;-2.556;2023-04-01T15:54:50;1.80;;;0.70;;
47025;SDS011;32783;51.756;-2.556;2023-04-01T16:09:02;1.70;;;0.60;;
47025;SDS011;32783;51.756;-2.556;2023-04-01T16:11:53;1.95;;;1.00;;
47025;SDS011;32783;51.756;-2.556;2023-04-01T16:17:25;1.23;;;0.50;;
47025;SDS011;32783;51.756;-2.556;2023-04-01T16:22:53;1.65;;;0.47;;
47025;SDS011;32783;51.756;-2.556;2023-04-01T16:28:28;1.92;;;0.50;;
47025;SDS011;32783;51.756;-2.556;2023-04-01T16:30:57;1.02;;;0.82;;
47025;SDS011;32783;51.756;-2.556;2023-04-01T16:33:49;1.35;;;0.60;;
47025;SDS011;32783;51.756;-2.556;2023-04-01T16:36:22;1.45;;;0.57;;
47025;SDS011;32783;51.756;-2.556;2023-04-01T16:45:32;1.98;;;0.60;;
47025;SDS011;32783;51.756;-2.556;2023-04-01T16:47:40;0.80;;;0.47;;
47025;SDS011;32783;51.756;-2.556;2023-04-01T16:50:30;2.60;;;0.60;;
47025;SDS011;32783;51.756;-2.556;2023-04-01T16:56:02;0.70;;;0.43;;
47025;SDS011;32783;51.756;-2.556;2023-04-01T16:58:40;1.40;;;0.60;;
47025;SDS011;32783;51.756;-2.556;2023-04-01T17:01:23;2.70;;;0.73;;
47025;SDS011;32783;51.756;-2.556;2023-04-01T17:03:53;4.53;;;0.98;;
47025;SDS011;32783;51.756;-2.556;2023-04-01T17:06:59;4.63;;;0.98;;
47025;SDS011;32783;51.756;-2.556;2023-04-01T17:09:37;1.52;;;0.70;;
47025;SDS011;32783;51.756;-2.556;2023-04-01T17:12:26;3.30;;;0.75;;
47025;SDS011;32783;51.756;-2.556;2023-04-01T17:15:05;4.37;;;0.80;;
47025;SDS011;32783;51.756;-2.556;2023-04-01T17:20:50;5.57;;;0.60;;
47025;SDS011;32783;51.756;-2.556;2023-04-01T17:26:41;2.63;;;0.52;;
47025;SDS011;32783;51.756;-2.556;2023-04-01T17:29:31;2.72;;;0.65;;
47025;SDS011;32783;51.756;-2.556;2023-04-01T17:32:15;1.45;;;0.40;;
47025;SDS011;32783;51.756;-2.556;2023-04-01T17:37:42;1.10;;;0.60;;
47025;SDS011;32783;51.756;-2.556;2023-04-01T17:43:16;3.92;;;1.50;;
47025;SDS011;32783;51.756;-2.556;2023-04-01T17:46:32;0.50;;;0.50;;
47025;SDS011;32783;51.756;-2.556;2023-04-01T17:49:39;1.98;;;0.52;;
47025;SDS011;32783;51.756;-2.556;2023-04-01T18:06:34;4.53;;;0.77;;
47025;SDS011;32783;51.756;-2.556;2023-04-01T18:15:15;2.13;;;0.60;;
47025;SDS011;32783;51.756;-2.556;2023-04-01T18:23:36;3.92;;;0.70;;
47025;SDS011;32783;51.756;-2.556;2023-04-01T18:26:23;3.10;;;1.23;;
47025;SDS011;32783;51.756;-2.556;2023-04-01T18:29:13;4.13;;;1.13;;
47025;SDS011;32783;51.756;-2.556;2023-04-01T18:32:13;8.57;;;1.20;;
47025;SDS011;32783;51.756;-2.556;2023-04-01T18:37:27;3.28;;;0.60;;
47025;SDS011;32783;51.756;-2.556;2023-04-01T18:50:57;3.88;;;0.88;;
47025;SDS011;32783;51.756;-2.556;2023-04-01T18:53:39;4.13;;;0.90;;
47025;SDS011;32783;51.756;-2.556;2023-04-01T18:56:15;4.20;;;0.57;;
47025;SDS011;32783;51.756;-2.556;2023-04-01T19:04:41;0.88;;;0.57;;
47025;SDS011;32783;51.756;-2.556;2023-04-01T19:27:48;1.23;;;0.60;;
47025;SDS011;32783;51.756;-2.556;2023-04-01T19:30:21;1.67;;;0.75;;
47025;SDS011;32783;51.756;-2.556;2023-04-01T19:33:08;0.77;;;0.57;;
47025;SDS011;32783;51.756;-2.556;2023-04-01T19:38:43;2.92;;;0.55;;
47025;SDS011;32783;51.756;-2.556;2023-04-01T19:53:29;1.55;;;0.40;;
47025;SDS011;32783;51.756;-2.556;2023-04-01T19:56:31;1.15;;;0.40;;
47025;SDS011;32783;51.756;-2.556;2023-04-01T19:59:23;0.70;;;0.32;;
47025;SDS011;32783;51.756;-2.556;2023-04-01T20:04:40;0.68;;;0.45;;
47025;SDS011;32783;51.756;-2.556;2023-04-01T20:07:27;1.35;;;0.30;;
47025;SDS011;32783;51.756;-2.556;2023-04-01T20:18:16;0.52;;;0.43;;
47025;SDS011;32783;51.756;-2.556;2023-04-01T20:21:02;0.77;;;0.40;;
47025;SDS011;32783;51.756;-2.556;2023-04-01T20:23:43;0.43;;;0.30;;
47025;SDS011;32783;51.756;-2.556;2023-04-01T20:26:19;0.63;;;0.40;;
47025;SDS011;32783;51.756;-2.556;2023-04-01T20:31:40;0.90;;;0.40;;
47025;SDS011;32783;51.756;-2.556;2023-04-01T20:50:52;2.08;;;0.45;;
47025;SDS011;32783;51.756;-2.556;2023-04-01T21:02:13;1.52;;;0.60;;
47025;SDS011;32783;51.756;-2.556;2023-04-01T21:22:24;0.50;;;0.30;;
47025;SDS011;32783;51.756;-2.556;2023-04-01T21:31:21;0.45;;;0.30;;
47025;SDS011;32783;51.756;-2.556;2023-04-01T21:40:37;0.28;;;0.20;;
47025;SDS011;32783;51.756;-2.556;2023-04-01T21:42:58;0.52;;;0.30;;
47025;SDS011;32783;51.756;-2.556;2023-04-01T22:00:43;2.55;;;0.68;;
47025;SDS011;32783;51.756;-2.556;2023-04-01T22:06:22;0.95;;;0.40;;
47025;SDS011;32783;51.756;-2.556;2023-04-01T22:08:52;1.05;;;0.60;;
47025;SDS011;32783;51.756;-2.556;2023-04-01T22:20:53;0.82;;;0.30;;
47025;SDS011;32783;51.756;-2.556;2023-04-01T22:26:30;1.00;;;0.30;;
47025;SDS011;32783;51.756;-2.556;2023-04-01T22:29:50;0.95;;;0.40;;
47025;SDS011;32783;51.756;-2.556;2023-04-01T22:32:27;0.75;;;0.45;;
47025;SDS011;32783;51.756;-2.556;2023-04-01T22:35:16;2.88;;;0.30;;
47025;SDS011;32783;51.756;-2.556;2023-04-01T22:38:07;2.50;;;0.60;;
47025;SDS011;32783;51.756;-2.556;2023-04-01T22:40:54;1.75;;;0.20;;
47025;SDS011;32783;51.756;-2.556;2023-04-01T22:52:37;0.28;;;0.22;;
47025;SDS011;32783;51.756;-2.556;2023-04-01T22:55:03;0.50;;;0.20;;
47025;SDS011;32783;51.756;-2.556;2023-04-01T23:03:17;0.20;;;0.20;;
47025;SDS011;32783;51.756;-2.556;2023-04-01T23:05:56;0.90;;;0.40;;
47025;SDS011;32783;51.756;-2.556;2023-04-01T23:08:56;1.55;;;0.50;;
47025;SDS011;32783;51.756;-2.556;2023-04-01T23:17:12;0.30;;;0.30;;
47025;SDS011;32783;51.756;-2.556;2023-04-01T23:31:36;0.20;;;0.20;;
47025;SDS011;32783;51.756;-2.556;2023-04-01T23:36:51;0.50;;;0.20;;
47025;SDS011;32783;51.756;-2.556;2023-04-01T23:42:21;0.57;;;0.20;;
47025;SDS011;32783;51.756;-2.556;2023-04-01T23:44:49;0.43;;;0.30;;
47025;SDS011;32783;51.756;-2.556;2023-04-01T23:47:31;0.65;;;0.30;;
47025;SDS011;32783;51.756;-2.556;2023-04-01T23:49:59;0.73;;;0.20;;
47025;SDS011;32783;51.756;-2.556;2023-04-01T23:52:42;0.75;;;0.35;;
47025;SDS011;32783;51.756;-2.556;2023-04-01T23:55:29;0.35;;;0.32;;
